Time;durP1;ratioP1;P1;durP2;ratioP2;P2;SDS_P1;SDS_P2;PMS_P1;PMS_P2;Temp;Humidity;BMP_temperature;BMP_pressure;BME280_temperature;BME280_humidity;BME280_pressure;Samples;Min_cycle;Max_cycle;Signal;HPM_P1;HPM_P2
2023/10/08 00:03:13;;;;;;;13.70;8.55;;;;;;;20.25;66.96;102029.25;5053706;28;20535;-67
2023/10/08 00:05:41;;;;;;;17.25;8.80;;;;;;;20.09;67.84;102040.25;5070359;28;20048;-68
2023/10/08 00:08:11;;;;;;;17.42;8.73;;;;;;;19.86;68.19;102045.44;5073206;28;20450;-61
2023/10/08 00:10:42;;;;;;;;;;;;;;;19.81;67.88;102045.66;5072202;28;20055;-62
2023/10/08 00:13:17;;;;;;;15.60;8.57;;;;;;;19.87;68.67;102047.09;5038964;28;19920;-62
2023/10/08 00:15:52;;;;;;;19.35;9.07;;;;;;;19.75;68.66;102038.63;5072055;28;20075;-61
2023/10/08 00:18:22;;;;;;;16.50;8.52;;;;;;;19.65;69.11;102039.03;5067376;28;20037;-62
2023/10/08 00:21:15;;;;;;;13.95;8.57;;;;;;;19.67;69.02;102041.50;5054456;28;20522;-61
2023/10/08 00:23:52;;;;;;;22.70;9.10;;;;;;;19.65;69.34;102043.84;5072608;28;20051;-62
2023/10/08 00:26:27;;;;;;;16.38;9.23;;;;;;;19.56;69.28;102046.69;5072155;28;20044;-62
2023/10/08 00:29:17;;;;;;;13.65;8.63;;;;;;;19.65;69.15;102050.22;5072269;28;20071;-62
2023/10/08 00:31:45;;;;;;;16.23;8.55;;;;;;;19.78;69.21;102056.69;5051128;28;20092;-62
2023/10/08 00:34:13;;;;;;;14.90;9.32;;;;;;;19.77;69.43;102052.28;5051998;28;20045;-61
2023/10/08 00:36:42;;;;;;;16.83;8.65;;;;;;;19.74;68.98;102056.56;5040906;28;20064;-61
2023/10/08 00:39:14;;;;;;;16.58;8.70;;;;;;;19.66;69.25;102062.25;5053028;28;20061;-62
2023/10/08 00:41:43;;;;;;;18.85;9.13;;;;;;;19.88;69.02;102065.47;5087816;28;20060;-61
2023/10/08 00:44:14;;;;;;;16.10;8.35;;;;;;;19.90;68.11;102056.75;5071358;28;20573;-61
2023/10/08 00:46:47;;;;;;;16.63;8.85;;;;;;;19.61;69.04;102060.47;5062777;28;20059;-60
2023/10/08 00:49:35;;;;;;;16.40;8.27;;;;;;;19.52;69.81;102065.31;5035360;28;20060;-61
2023/10/08 00:52:26;;;;;;;22.70;8.88;;;;;;;19.47;69.90;102065.53;5060213;28;20037;-60
2023/10/08 00:55:21;;;;;;;20.13;8.25;;;;;;;19.61;69.25;102057.69;5052069;28;20053;-60
2023/10/08 00:57:42;;;;;;;16.90;8.15;;;;;;;19.58;69.86;102054.75;5051717;28;20057;-62
2023/10/08 01:00:17;;;;;;;14.40;8.13;;;;;;;19.68;69.18;102048.75;5042425;28;20647;-62
2023/10/08 01:03:00;;;;;;;14.13;8.05;;;;;;;19.53;69.15;102057.72;5057963;28;20053;-61
2023/10/08 01:08:36;;;;;;;15.35;8.45;;;;;;;19.46;70.40;102052.69;5047687;28;20060;-61
2023/10/08 01:11:26;;;;;;;14.50;7.83;;;;;;;19.46;69.22;102049.91;5071916;28;20491;-61
2023/10/08 01:13:55;;;;;;;12.50;7.30;;;;;;;19.43;70.03;102049.75;5055038;28;20041;-63
2023/10/08 01:16:22;;;;;;;14.80;8.40;;;;;;;19.52;70.07;102047.72;5054129;28;20055;-62
2023/10/08 01:18:50;;;;;;;13.95;7.65;;;;;;;19.33;70.05;102047.38;5060290;28;20415;-62
2023/10/08 01:21:33;;;;;;;14.02;7.72;;;;;;;19.33;70.30;102052.97;5072959;28;20075;-62
2023/10/08 01:24:05;;;;;;;18.23;8.80;;;;;;;19.46;70.08;102044.31;5069485;28;20055;-61
2023/10/08 01:26:39;;;;;;;16.63;7.85;;;;;;;19.44;70.47;102031.84;5056325;28;20053;-62
2023/10/08 01:29:18;;;;;;;13.32;7.68;;;;;;;19.48;70.26;102039.19;5021410;28;20053;-61
2023/10/08 01:31:48;;;;;;;16.55;8.00;;;;;;;19.41;70.26;102038.94;5055639;28;20049;-61
2023/10/08 01:34:17;;;;;;;14.00;8.10;;;;;;;19.29;70.36;102049.19;5046926;28;20056;-61
2023/10/08 01:36:44;;;;;;;11.70;7.30;;;;;;;19.19;70.32;102032.81;5058095;28;20053;-61
2023/10/08 01:39:15;;;;;;;14.13;7.72;;;;;;;19.35;70.32;102037.50;5070986;28;20048;-61
2023/10/08 01:41:51;;;;;;;12.98;7.88;;;;;;;19.24;69.69;102033.44;5073849;28;20064;-62
2023/10/08 01:44:18;;;;;;;13.30;7.53;;;;;;;19.25;70.34;102029.47;5057278;28;20611;-61
2023/10/08 01:46:46;;;;;;;12.40;7.70;;;;;;;19.16;70.39;102022.34;5074998;28;20064;-61
2023/10/08 01:49:14;;;;;;;15.00;7.28;;;;;;;19.11;70.75;102026.13;5074696;28;20055;-61
2023/10/08 01:51:46;;;;;;;15.40;7.75;;;;;;;19.08;71.15;102032.41;5075338;28;20162;-62
2023/10/08 01:54:17;;;;;;;13.65;7.00;;;;;;;19.26;70.72;102019.97;5074692;28;20044;-61
2023/10/08 01:56:45;;;;;;;12.95;7.32;;;;;;;19.20;70.42;102023.28;5064925;28;20063;-61
2023/10/08 01:59:15;;;;;;;12.57;6.93;;;;;;;19.11;70.94;102014.16;5070487;28;20053;-61
2023/10/08 02:01:45;;;;;;;15.85;7.30;;;;;;;19.03;71.62;102022.25;5039669;28;20048;-61
2023/10/08 02:04:12;;;;;;;13.40;7.30;;;;;;;19.00;71.33;102016.53;5040222;28;20048;-60
2023/10/08 02:06:40;;;;;;;12.65;7.28;;;;;;;19.34;70.49;102010.72;5070393;28;20088;-60
2023/10/08 02:09:08;;;;;;;14.73;7.97;;;;;;;19.28;70.74;102002.84;5070191;28;20057;-61
2023/10/08 02:11:53;;;;;;;11.55;7.25;;;;;;;19.12;69.88;102001.81;5056101;28;20092;-60
2023/10/08 02:14:22;;;;;;;12.85;6.82;;;;;;;19.15;71.24;102013.13;5061359;28;20049;-62
2023/10/08 02:16:54;;;;;;;11.63;6.93;;;;;;;19.29;70.25;101994.13;5036035;28;20057;-60
2023/10/08 02:19:28;;;;;;;11.40;7.07;;;;;;;19.23;70.56;101995.47;5047999;28;20055;-60
2023/10/08 02:21:57;;;;;;;13.52;7.07;;;;;;;19.26;70.46;101989.22;5052470;28;20055;-61
2023/10/08 02:24:25;;;;;;;14.70;7.90;;;;;;;19.21;70.24;101985.81;5036181;28;20051;-61
2023/10/08 02:26:54;;;;;;;13.43;6.88;;;;;;;19.14;70.28;101989.16;5036809;28;20068;-60
2023/10/08 02:29:25;;;;;;;14.80;7.43;;;;;;;19.13;70.30;101992.28;5071255;28;20041;-62
2023/10/08 02:31:53;;;;;;;12.38;6.50;;;;;;;19.02;70.72;101989.88;5071400;28;20451;-61
2023/10/08 02:34:21;;;;;;;13.80;7.10;;;;;;;18.98;71.03;101993.72;5054398;28;20043;-61
2023/10/08 02:36:50;;;;;;;15.07;7.22;;;;;;;19.02;71.11;101991.88;5037085;28;20049;-61
2023/10/08 02:39:25;;;;;;;11.48;6.53;;;;;;;19.08;71.49;101990.50;5054599;28;20507;-65
2023/10/08 02:41:56;;;;;;;14.82;7.50;;;;;;;19.33;70.31;101991.50;5054421;28;20076;-61
2023/10/08 02:44:24;;;;;;;13.35;7.68;;;;;;;19.22;70.49;101979.88;5036592;28;20056;-60
2023/10/08 02:46:52;;;;;;;12.65;7.22;;;;;;;19.24;70.34;101983.16;5054852;28;20411;-62
2023/10/08 02:49:20;;;;;;;14.07;7.22;;;;;;;19.14;71.05;101983.56;5069329;28;20048;-61
2023/10/08 02:51:51;;;;;;;19.42;7.05;;;;;;;19.01;71.07;101988.25;5056218;28;20044;-61
2023/10/08 02:54:18;;;;;;;12.13;7.30;;;;;;;18.87;71.31;101986.88;5054387;28;20041;-60
2023/10/08 02:56:50;;;;;;;14.35;7.70;;;;;;;18.90;71.50;101994.56;5054392;28;20057;-61
2023/10/08 02:59:21;;;;;;;14.88;7.03;;;;;;;18.96;70.92;101993.22;5072102;28;20392;-63
2023/10/08 03:01:49;;;;;;;14.25;6.80;;;;;;;18.83;71.96;101989.53;5036407;28;20064;-62
2023/10/08 03:04:20;;;;;;;14.45;7.88;;;;;;;18.86;71.84;101988.84;5059538;28;20044;-61
2023/10/08 03:06:54;;;;;;;14.23;7.03;;;;;;;18.97;71.57;101986.47;5045529;28;20522;-61
2023/10/08 03:09:31;;;;;;;13.40;7.25;;;;;;;19.09;70.95;101987.38;5071812;28;20048;-61
2023/10/08 03:11:59;;;;;;;12.95;7.40;;;;;;;19.06;71.25;101987.22;5055575;28;20059;-61
2023/10/08 03:14:26;;;;;;;14.38;6.80;;;;;;;18.94;71.08;101995.53;5047445;28;20554;-61
2023/10/08 03:17:07;;;;;;;12.98;7.43;;;;;;;19.01;71.14;101987.44;5035985;28;20052;-61
2023/10/08 03:19:35;;;;;;;16.25;6.43;;;;;;;18.96;71.40;101991.25;5048735;28;20060;-61
2023/10/08 03:22:05;;;;;;;11.25;6.32;;;;;;;18.88;71.81;101994.91;5052965;28;20622;-61
2023/10/08 03:27:20;;;;;;;;;;;;;;;18.93;71.63;101993.91;5036360;28;20155;-61
2023/10/08 03:29:48;;;;;;;12.90;7.20;;;;;;;18.95;71.55;101991.59;5042733;28;19920;-62
2023/10/08 03:32:16;;;;;;;11.48;6.93;;;;;;;18.93;72.08;101991.91;5072284;28;20071;-61
2023/10/08 03:34:49;;;;;;;10.13;6.43;;;;;;;19.09;71.17;101992.97;5073651;28;20052;-62
2023/10/08 03:37:21;;;;;;;12.07;6.97;;;;;;;18.98;71.04;101996.50;5073661;28;20656;-62
2023/10/08 03:39:52;;;;;;;11.90;6.82;;;;;;;18.88;71.76;102002.50;5073612;28;20047;-62
2023/10/08 03:42:23;;;;;;;11.65;6.75;;;;;;;18.89;71.08;102007.72;5072928;28;20068;-60
2023/10/08 03:44:52;;;;;;;14.32;7.18;;;;;;;18.89;71.66;102006.91;5055223;28;20048;-61
2023/10/08 03:47:22;;;;;;;12.73;6.75;;;;;;;18.88;71.54;102005.28;5073262;28;20695;-62
2023/10/08 03:49:50;;;;;;;14.23;7.50;;;;;;;18.93;71.87;102010.66;5072602;28;20060;-61
2023/10/08 03:52:23;;;;;;;10.77;6.68;;;;;;;18.95;71.88;102011.16;5073002;28;20475;-61
2023/10/08 03:57:42;;;;;;;15.18;7.28;;;;;;;18.71;71.49;102003.41;5072903;28;20061;-60
2023/10/08 04:00:18;;;;;;;13.02;7.63;;;;;;;18.85;72.30;102009.56;5073118;28;20052;-60
2023/10/08 04:02:55;;;;;;;13.43;6.97;;;;;;;18.73;72.14;102005.84;5072716;28;20428;-60
2023/10/08 04:05:40;;;;;;;12.85;6.97;;;;;;;18.82;71.92;102001.03;5055036;28;20044;-61
2023/10/08 04:08:42;;;;;;;13.73;7.05;;;;;;;18.72;72.75;102016.22;5053408;28;20045;-61
2023/10/08 04:11:30;;;;;;;12.13;6.75;;;;;;;18.82;71.92;102013.03;5052453;28;20056;-61
2023/10/08 04:14:00;;;;;;;11.57;6.75;;;;;;;18.97;71.63;102006.84;5041327;28;20079;-61
2023/10/08 04:16:27;;;;;;;11.40;6.95;;;;;;;18.81;71.93;102014.16;5072230;28;20052;-60
2023/10/08 04:18:55;;;;;;;14.15;7.05;;;;;;;18.86;71.78;102010.38;5054518;28;20044;-61
2023/10/08 04:21:27;;;;;;;14.70;7.07;;;;;;;18.67;71.95;102001.63;5057723;28;20056;-61
2023/10/08 04:23:57;;;;;;;15.00;7.10;;;;;;;18.72;72.00;101998.63;5052869;28;20124;-61
2023/10/08 04:26:25;;;;;;;11.32;6.70;;;;;;;18.77;72.37;101996.47;5033883;28;20072;-61
2023/10/08 04:29:02;;;;;;;12.10;6.60;;;;;;;18.82;71.80;102004.66;5051971;28;20052;-60
2023/10/08 04:31:39;;;;;;;12.85;6.70;;;;;;;18.78;72.10;102003.69;5070078;28;20048;-61
2023/10/08 04:34:15;;;;;;;10.98;6.32;;;;;;;18.77;72.20;101992.84;5071449;28;20404;-61
2023/10/08 04:36:45;;;;;;;14.90;7.05;;;;;;;18.76;72.19;101996.78;5071536;28;20087;-60
2023/10/08 04:39:15;;;;;;;11.38;6.88;;;;;;;18.74;72.43;101997.13;5070672;28;20052;-61
2023/10/08 04:41:43;;;;;;;12.90;6.95;;;;;;;18.65;72.61;101992.78;5071762;28;20051;-61
2023/10/08 04:44:14;;;;;;;13.65;7.00;;;;;;;18.60;72.52;102001.34;5049485;28;20045;-61
2023/10/08 04:49:27;;;;;;;14.15;6.80;;;;;;;18.59;72.67;101996.88;5051945;28;20060;-60
2023/10/08 04:51:58;;;;;;;9.57;5.82;;;;;;;18.71;72.03;101996.97;5052603;28;20411;-62
2023/10/08 04:54:32;;;;;;;14.05;6.82;;;;;;;18.74;72.35;102001.91;5052865;28;20052;-60
2023/10/08 04:57:00;;;;;;;15.52;7.30;;;;;;;18.73;72.16;102005.84;5071489;28;20052;-60
2023/10/08 04:59:33;;;;;;;16.60;6.78;;;;;;;18.64;72.20;101996.69;5083485;28;20052;-61
2023/10/08 05:02:20;;;;;;;12.85;6.53;;;;;;;18.57;72.70;101993.63;5051344;28;20053;-61
2023/10/08 05:07:54;;;;;;;14.35;6.85;;;;;;;18.51;72.63;101997.75;5080437;28;20041;-61
2023/10/08 05:16:06;;;;;;;13.35;6.68;;;;;;;18.57;72.60;101993.63;5038590;28;20051;-61
2023/10/08 05:28:46;;;;;;;11.45;6.20;;;;;;;18.55;72.02;102007.91;5051425;28;20053;-60
2023/10/08 05:34:14;;;;;;;;;;;;;;;18.72;72.31;102007.84;5065668;28;20053;-61
2023/10/08 05:41:51;;;;;;;16.45;6.93;;;;;;;18.68;72.74;102006.03;5071744;28;20049;-62
2023/10/08 05:47:06;;;;;;;14.50;6.60;;;;;;;18.52;73.20;102010.56;5066154;28;20426;-62
2023/10/08 06:07:56;;;;;;;12.80;6.45;;;;;;;18.42;73.43;102022.91;5073536;28;20044;-62
2023/10/08 06:18:28;;;;;;;13.63;6.40;;;;;;;18.37;73.33;102020.28;5066450;28;20044;-62
2023/10/08 06:21:00;;;;;;;12.10;7.22;;;;;;;18.45;73.00;102027.00;5072094;28;20056;-61
2023/10/08 06:23:28;;;;;;;11.85;6.28;;;;;;;18.28;73.36;102030.66;5072465;28;20659;-61
2023/10/08 06:26:05;;;;;;;12.38;6.47;;;;;;;18.27;73.17;102036.56;5073291;28;20484;-62
2023/10/08 06:28:35;;;;;;;12.23;6.22;;;;;;;18.27;73.76;102028.19;5072953;28;20052;-61
2023/10/08 06:31:06;;;;;;;12.27;5.80;;;;;;;18.48;72.97;102035.50;5073793;28;20048;-60
2023/10/08 06:33:34;;;;;;;10.60;6.50;;;;;;;18.38;73.55;102043.41;5072538;28;20052;-61
2023/10/08 06:36:02;;;;;;;12.05;5.90;;;;;;;18.56;72.65;102040.25;5075570;28;20053;-60
2023/10/08 06:38:32;;;;;;;13.07;6.47;;;;;;;18.89;71.75;102040.41;5077810;28;20064;-61
2023/10/08 06:41:06;;;;;;;10.27;6.10;;;;;;;18.93;70.72;102041.38;5033416;28;21446;-61
2023/10/08 06:43:36;;;;;;;15.60;6.78;;;;;;;18.64;70.68;102042.19;5054146;28;20057;-59
2023/10/08 06:46:07;;;;;;;10.83;6.20;;;;;;;18.67;71.17;102043.50;5060877;28;20052;-63
2023/10/08 06:48:34;;;;;;;13.30;6.30;;;;;;;18.55;71.52;102040.59;5055990;28;20613;-62
2023/10/08 06:51:12;;;;;;;21.88;6.65;;;;;;;18.54;71.46;102050.09;5073311;28;20052;-61
2023/10/08 06:53:40;;;;;;;11.40;6.40;;;;;;;18.70;71.10;102048.41;5073481;28;20059;-60
2023/10/08 06:56:12;;;;;;;12.07;6.72;;;;;;;18.66;71.16;102042.66;5073840;28;20047;-62
2023/10/08 06:58:54;;;;;;;13.20;6.68;;;;;;;18.57;71.62;102046.63;5059310;28;20128;-62
2023/10/08 07:01:22;;;;;;;14.50;6.82;;;;;;;18.59;71.85;102056.31;5073476;28;20479;-62
2023/10/08 07:03:50;;;;;;;15.02;7.28;;;;;;;18.59;71.40;102053.53;5052828;28;20549;-62
2023/10/08 07:11:56;;;;;;;12.77;7.22;;;;;;;18.51;72.06;102050.78;5052968;28;20048;-61
2023/10/08 07:14:26;;;;;;;10.63;6.68;;;;;;;18.50;72.33;102051.91;5054273;28;20045;-62
2023/10/08 07:17:27;;;;;;;30.30;7.95;;;;;;;18.60;71.69;102054.38;5053075;28;20048;-61
2023/10/08 07:19:57;;;;;;;12.82;7.72;;;;;;;18.73;71.67;102056.91;5067390;28;20057;-68
2023/10/08 07:23:09;;;;;;;15.55;9.43;;;;;;;18.66;71.37;102053.84;5073068;28;20045;-67
2023/10/08 07:26:17;;;;;;;15.65;8.38;;;;;;;18.75;70.95;102060.19;5057292;28;20067;-67
2023/10/08 07:28:46;;;;;;;14.75;8.32;;;;;;;18.69;71.55;102055.94;5045535;28;20080;-62
2023/10/08 07:31:17;;;;;;;16.08;8.55;;;;;;;18.84;70.86;102055.41;5052871;28;20049;-62
2023/10/08 07:34:34;;;;;;;13.65;7.68;;;;;;;18.88;71.07;102052.75;5071680;28;20060;-67
2023/10/08 07:37:37;;;;;;;12.98;8.15;;;;;;;18.85;70.40;102054.22;5070506;28;20738;-69
2023/10/08 07:40:30;;;;;;;13.80;7.72;;;;;;;18.84;71.56;102057.34;5061008;28;20049;-61
2023/10/08 07:43:08;;;;;;;17.98;11.43;;;;;;;18.98;71.55;102057.94;5070675;28;20071;-62
2023/10/08 07:45:35;;;;;;;16.88;10.15;;;;;;;19.22;71.89;102051.69;5049706;28;20051;-63
2023/10/08 07:48:09;;;;;;;15.23;9.55;;;;;;;19.23;71.28;102047.75;5052858;28;20057;-62
2023/10/08 07:50:45;;;;;;;21.45;13.38;;;;;;;19.33;69.99;102053.78;5069768;28;20060;-62
2023/10/08 07:53:17;;;;;;;20.95;14.05;;;;;;;19.43;69.94;102053.38;5045857;28;20053;-62
2023/10/08 07:55:47;;;;;;;24.08;13.68;;;;;;;19.23;69.88;102044.97;5047744;28;20053;-63
2023/10/08 07:58:15;;;;;;;15.43;10.02;;;;;;;19.03;68.65;102054.94;5071135;28;20055;-60
2023/10/08 08:00:51;;;;;;;17.42;9.52;;;;;;;19.04;70.74;102048.19;5071581;28;20059;-61
2023/10/08 08:03:19;;;;;;;36.63;28.10;;;;;;;19.05;70.95;102058.22;5067141;28;20048;-61
2023/10/08 08:05:48;;;;;;;17.80;9.93;;;;;;;18.83;71.38;102058.50;5066776;28;20040;-62
2023/10/08 08:08:17;;;;;;;18.20;10.38;;;;;;;18.45;71.73;102072.47;5054046;28;20388;-61
2023/10/08 08:10:45;;;;;;;16.88;9.90;;;;;;;18.73;73.25;102072.84;5073792;28;20044;-61
2023/10/08 08:13:14;;;;;;;19.48;9.70;;;;;;;19.02;72.95;102068.09;5071429;28;20049;-60
2023/10/08 08:15:43;;;;;;;16.80;9.15;;;;;;;19.20;71.67;102062.38;5046732;28;20043;-61
2023/10/08 08:18:22;;;;;;;17.80;9.60;;;;;;;19.20;71.08;102068.78;5071056;28;20059;-61
2023/10/08 08:20:49;;;;;;;16.17;9.50;;;;;;;19.31;71.08;102070.06;5061485;28;20060;-61
2023/10/08 08:23:17;;;;;;;18.00;9.70;;;;;;;19.35;70.18;102064.63;5059329;28;20051;-58
2023/10/08 08:28:30;;;;;;;23.27;11.45;;;;;;;19.68;68.85;102060.72;5072030;28;20048;-60
2023/10/08 08:31:04;;;;;;;21.75;10.65;;;;;;;19.70;68.17;102058.41;5068280;28;20044;-69
2023/10/08 08:33:52;;;;;;;17.98;10.10;;;;;;;19.78;68.14;102060.31;5071307;28;20045;-67
2023/10/08 08:36:20;;;;;;;17.92;10.10;;;;;;;19.86;67.42;102061.38;5065674;28;20040;-68
2023/10/08 08:38:48;;;;;;;15.40;9.68;;;;;;;19.83;67.27;102065.69;5066559;28;20052;-69
2023/10/08 08:41:18;;;;;;;14.88;9.57;;;;;;;20.03;66.80;102058.44;5053193;28;20063;-68
2023/10/08 08:43:48;;;;;;;33.80;20.27;;;;;;;20.17;68.50;102070.16;5070049;28;20060;-63
2023/10/08 08:46:34;;;;;;;21.42;11.85;;;;;;;20.37;69.90;102066.47;5051251;28;20268;-63
2023/10/08 08:49:07;;;;;;;16.40;9.90;;;;;;;20.43;68.40;102059.50;5069568;28;20061;-62
2023/10/08 08:51:35;;;;;;;24.45;10.35;;;;;;;20.60;67.63;102061.25;5051892;28;20064;-62
2023/10/08 08:54:07;;;;;;;16.33;9.40;;;;;;;20.77;66.56;102058.22;5068391;28;20431;-61
2023/10/08 08:56:36;;;;;;;16.27;9.05;;;;;;;20.75;65.00;102067.00;5054938;28;20048;-62
2023/10/08 08:59:13;;;;;;;16.00;9.73;;;;;;;20.97;65.37;102069.31;5056924;28;20060;-63
2023/10/08 09:01:41;;;;;;;15.68;9.48;;;;;;;20.95;64.67;102068.03;5056595;28;20060;-62
2023/10/08 09:04:09;;;;;;;17.10;9.07;;;;;;;20.94;63.75;102060.78;5024661;28;20051;-62
2023/10/08 09:06:37;;;;;;;23.83;9.85;;;;;;;21.12;63.68;102059.41;5074683;28;20531;-60
2023/10/08 09:09:21;;;;;;;20.02;9.50;;;;;;;21.12;63.55;102060.25;5067291;28;20543;-60
2023/10/08 09:11:52;;;;;;;21.75;9.52;;;;;;;21.11;63.28;102061.41;5048706;28;20049;-61
2023/10/08 09:14:27;;;;;;;17.17;9.32;;;;;;;21.13;62.70;102059.06;5033546;28;20048;-62
2023/10/08 09:16:54;;;;;;;16.13;8.55;;;;;;;20.97;61.85;102054.50;5049194;28;20086;-61
2023/10/08 09:19:24;;;;;;;17.05;8.35;;;;;;;21.37;61.99;102057.41;5069769;28;20047;-61
2023/10/08 09:22:03;;;;;;;;;;;;;;;21.44;61.89;102050.03;5049871;28;20052;-61
2023/10/08 09:24:38;;;;;;;23.85;8.80;;;;;;;21.65;61.22;102052.66;5068789;28;20536;-59
2023/10/08 09:27:07;;;;;;;20.63;7.13;;;;;;;21.52;58.70;102045.44;5066978;28;20049;-58
2023/10/08 09:29:41;;;;;;;12.20;7.47;;;;;;;21.70;59.92;102042.00;5068879;28;20056;-61
2023/10/08 09:32:13;;;;;;;17.98;6.57;;;;;;;21.65;59.28;102041.44;5069459;28;20056;-60
2023/10/08 09:34:43;;;;;;;16.23;6.13;;;;;;;21.46;57.46;102049.66;5051511;28;20052;-59
2023/10/08 09:37:11;;;;;;;14.02;5.20;;;;;;;21.41;57.93;102039.50;5064330;28;20041;-58
2023/10/08 09:39:39;;;;;;;12.43;5.80;;;;;;;21.57;57.65;102045.16;5066743;28;20068;-58
2023/10/08 09:42:06;;;;;;;10.00;5.45;;;;;;;21.16;57.21;102040.75;5052312;28;20060;-67
2023/10/08 09:44:34;;;;;;;12.25;5.38;;;;;;;21.22;57.30;102044.91;5052039;28;20056;-65
2023/10/08 09:47:04;;;;;;;11.60;4.90;;;;;;;21.02;56.95;102043.09;5072182;28;20052;-66
2023/10/08 09:49:34;;;;;;;10.23;5.82;;;;;;;21.15;57.44;102041.88;5072160;28;20044;-65
2023/10/08 09:52:05;;;;;;;10.70;5.55;;;;;;;21.23;57.25;102038.94;5072291;28;20450;-66
2023/10/08 09:54:44;;;;;;;10.23;5.20;;;;;;;21.42;57.17;102041.16;5048899;28;20067;-58
2023/10/08 09:57:12;;;;;;;10.93;5.75;;;;;;;21.34;56.15;102035.69;5046877;28;20581;-60
2023/10/08 09:59:40;;;;;;;16.60;5.63;;;;;;;21.07;56.23;102028.84;5052581;28;20060;-62
2023/10/08 10:02:10;;;;;;;13.75;5.22;;;;;;;21.37;57.58;102037.78;5072171;28;20055;-62
2023/10/08 10:05:24;;;;;;;10.63;5.05;;;;;;;21.37;57.65;102030.19;5060138;28;20057;-63
2023/10/08 10:07:55;;;;;;;20.25;6.82;;;;;;;21.33;56.67;102034.03;5050673;28;20185;-61
2023/10/08 10:10:34;;;;;;;16.15;6.30;;;;;;;21.55;56.08;102025.91;5034497;28;20407;-61
2023/10/08 10:13:07;;;;;;;14.57;5.43;;;;;;;21.53;55.83;102031.03;5070737;28;20048;-60
2023/10/08 10:15:39;;;;;;;14.38;5.40;;;;;;;21.45;57.33;102023.59;5071718;28;20067;-61
2023/10/08 10:18:14;;;;;;;24.70;6.60;;;;;;;21.66;56.07;102020.59;5053794;28;20051;-60
2023/10/08 10:20:45;;;;;;;12.65;5.10;;;;;;;21.82;55.98;102021.50;5069184;28;20056;-61
2023/10/08 10:23:39;;;;;;;14.32;5.15;;;;;;;21.85;55.47;102029.19;5054526;28;20055;-62
2023/10/08 10:26:26;;;;;;;13.45;5.28;;;;;;;21.78;55.75;102026.19;5070226;28;20052;-63
2023/10/08 10:29:19;;;;;;;13.52;5.00;;;;;;;21.98;56.06;102022.38;5070526;28;20052;-63
2023/10/08 10:31:53;;;;;;;13.80;4.47;;;;;;;22.32;54.68;102024.50;5070369;28;20056;-62
2023/10/08 10:34:26;;;;;;;9.68;5.38;;;;;;;22.23;55.06;102026.66;5072813;28;20041;-60
2023/10/08 10:36:58;;;;;;;9.90;4.72;;;;;;;22.25;55.50;102024.28;5071169;28;20048;-61
2023/10/08 10:39:27;;;;;;;9.35;4.90;;;;;;;22.35;55.58;102024.59;5042681;28;20737;-59
2023/10/08 10:41:57;;;;;;;9.95;5.15;;;;;;;22.47;53.97;102017.25;5065099;28;20040;-60
2023/10/08 10:44:24;;;;;;;12.90;5.13;;;;;;;22.59;54.03;102022.81;5071827;28;20044;-62
2023/10/08 10:47:25;;;;;;;10.02;5.40;;;;;;;22.54;53.82;102023.06;5072335;28;20055;-60
2023/10/08 10:49:52;;;;;;;14.52;5.28;;;;;;;22.65;54.05;102022.16;5070073;28;20514;-60
2023/10/08 11:03:03;;;;;;;9.40;4.57;;;;;;;23.08;52.01;102024.00;5040899;28;20582;-62
2023/10/08 11:05:37;;;;;;;;;;;;;;;22.78;51.37;102026.50;5050867;28;20036;-60
2023/10/08 11:08:08;;;;;;;16.58;4.93;;;;;;;22.87;51.40;102027.16;5035960;28;19924;-73
2023/10/08 11:10:46;;;;;;;8.27;4.20;;;;;;;22.88;51.58;102033.56;5064431;28;20059;-60
2023/10/08 11:13:16;;;;;;;11.45;4.90;;;;;;;22.98;50.05;102035.81;5052952;28;20048;-61
2023/10/08 11:15:49;;;;;;;16.38;5.25;;;;;;;23.22;51.92;102032.78;5068481;28;20091;-61
2023/10/08 11:18:19;;;;;;;15.73;5.15;;;;;;;23.15;51.84;102027.78;5051975;28;20040;-59
2023/10/08 11:20:54;;;;;;;12.50;5.05;;;;;;;23.10;50.66;102025.25;5065203;28;20059;-60
2023/10/08 11:23:36;;;;;;;10.23;4.90;;;;;;;23.14;50.92;102019.72;5070137;28;20047;-60
2023/10/08 11:26:08;;;;;;;12.43;5.20;;;;;;;23.22;51.34;102016.69;5064612;28;20053;-60
2023/10/08 11:28:42;;;;;;;11.77;4.63;;;;;;;23.28;51.53;102020.88;5068557;28;20051;-60
2023/10/08 11:31:19;;;;;;;11.32;4.82;;;;;;;23.23;50.71;102014.72;5052139;28;20058;-59
2023/10/08 11:33:56;;;;;;;10.82;5.28;;;;;;;23.50;49.99;102008.13;5038837;28;20049;-60
2023/10/08 11:36:33;;;;;;;10.90;5.25;;;;;;;23.59;50.20;102017.13;5067140;28;20047;-62
2023/10/08 11:39:20;;;;;;;9.80;4.60;;;;;;;23.59;49.78;102007.91;5077605;28;20048;-60
2023/10/08 11:42:02;;;;;;;11.30;4.75;;;;;;;23.61;48.72;102003.50;5069648;28;20044;-59
2023/10/08 11:44:35;;;;;;;15.38;5.18;;;;;;;23.68;49.10;102000.00;5071213;28;20060;-61
2023/10/08 11:47:20;;;;;;;10.98;4.82;;;;;;;23.83;48.46;101993.50;5063209;28;20048;-60
2023/10/08 11:49:50;;;;;;;10.80;5.32;;;;;;;23.69;49.13;101985.59;5065746;28;20049;-61
2023/10/08 11:52:21;;;;;;;13.05;5.03;;;;;;;23.70;47.50;101984.41;5046731;28;20056;-61
2023/10/08 11:54:52;;;;;;;10.63;4.88;;;;;;;23.78;47.53;101986.16;5065336;28;20052;-61
2023/10/08 11:57:21;;;;;;;9.68;4.97;;;;;;;23.84;47.52;101978.22;5049851;28;20056;-61
2023/10/08 11:59:54;;;;;;;11.88;5.25;;;;;;;23.93;47.23;101981.63;5067894;28;20055;-61
2023/10/08 12:02:23;;;;;;;9.85;4.47;;;;;;;23.79;47.29;101972.91;5042573;28;20522;-61
2023/10/08 12:04:51;;;;;;;18.58;5.25;;;;;;;23.85;47.88;101971.44;5052226;28;20044;-64
2023/10/08 12:07:20;;;;;;;14.90;4.90;;;;;;;23.90;47.69;101968.31;5066225;28;20045;-61
2023/10/08 12:09:48;;;;;;;11.90;5.20;;;;;;;23.97;46.89;101960.00;5040354;28;20049;-64
2023/10/08 12:12:23;;;;;;;11.13;4.88;;;;;;;24.25;45.80;101955.69;5060766;28;20446;-64
2023/10/08 12:14:56;;;;;;;14.23;5.10;;;;;;;24.34;45.61;101949.81;5060462;28;20048;-64
2023/10/08 12:17:37;;;;;;;9.88;4.53;;;;;;;24.41;46.14;101944.28;5069156;28;20057;-65
2023/10/08 12:20:23;;;;;;;11.75;4.95;;;;;;;24.38;44.38;101939.41;5055772;28;20557;-64
2023/10/08 12:22:51;;;;;;;15.80;5.00;;;;;;;24.44;45.20;101935.13;5064575;28;20041;-64
2023/10/08 12:25:19;;;;;;;10.90;5.60;;;;;;;24.63;44.77;101926.56;5038689;28;20048;-64
2023/10/08 12:27:47;;;;;;;7.97;4.78;;;;;;;24.53;44.46;101933.63;5067370;28;20044;-64
2023/10/08 12:30:14;;;;;;;9.90;4.53;;;;;;;24.67;44.21;101929.44;5053572;28;20052;-64
2023/10/08 12:32:42;;;;;;;10.10;5.28;;;;;;;24.73;45.30;101922.28;5050020;28;20108;-62
2023/10/08 12:35:12;;;;;;;11.57;4.97;;;;;;;24.66;44.54;101922.16;5043241;28;20088;-62
2023/10/08 12:37:40;;;;;;;12.30;4.78;;;;;;;24.68;45.43;101917.78;5067162;28;20074;-63
2023/10/08 12:40:22;;;;;;;12.48;4.45;;;;;;;24.65;44.08;101915.72;5074009;28;20055;-72
2023/10/08 12:42:54;;;;;;;10.75;4.40;;;;;;;24.62;44.14;101916.47;5065417;28;20711;-63
2023/10/08 12:45:21;;;;;;;16.92;4.80;;;;;;;24.77;43.83;101923.16;5063880;28;20063;-61
2023/10/08 12:47:50;;;;;;;12.95;4.55;;;;;;;25.02;41.10;101916.66;5051929;28;20045;-63
2023/10/08 12:50:24;;;;;;;12.20;4.28;;;;;;;24.90;41.42;101910.44;5046936;28;20052;-63
2023/10/08 12:52:55;;;;;;;8.88;4.22;;;;;;;25.04;41.04;101905.00;5055484;28;20052;-62
2023/10/08 12:55:25;;;;;;;7.85;4.07;;;;;;;25.08;42.21;101908.69;5069893;28;20644;-66
2023/10/08 12:57:55;;;;;;;8.43;4.40;;;;;;;24.98;41.35;101903.72;5045974;28;20043;-65
2023/10/08 13:00:26;;;;;;;12.63;3.92;;;;;;;24.74;40.88;101898.56;5047970;28;20041;-63
2023/10/08 13:02:53;;;;;;;11.63;4.10;;;;;;;24.93;41.34;101892.78;5017922;28;20408;-64
2023/10/08 13:05:27;;;;;;;11.25;3.40;;;;;;;25.10;40.83;101901.47;5061053;28;20049;-64
2023/10/08 13:07:56;;;;;;;13.93;3.70;;;;;;;25.10;40.85;101893.03;5058845;28;20036;-64
2023/10/08 13:10:24;;;;;;;10.18;3.30;;;;;;;25.09;41.05;101891.38;5069473;28;20044;-65
2023/10/08 13:12:51;;;;;;;15.82;3.33;;;;;;;25.04;40.36;101902.19;5068872;28;20044;-61
2023/10/08 13:15:19;;;;;;;12.52;3.17;;;;;;;25.14;40.21;101895.88;5065855;28;20563;-62